sensor_id;sensor_type;location;lat;lon;timestamp;P1;durP1;ratioP1;P2;durP2;ratioP2
4957;SDS011;2494;51.872;9.688;2022-08-02T00:01:49;7.60;;;7.00;;
4957;SDS011;2494;51.872;9.688;2022-08-02T00:04:15;7.53;;;6.70;;
4957;SDS011;2494;51.872;9.688;2022-08-02T00:06:43;10.47;;;7.17;;
4957;SDS011;2494;51.872;9.688;2022-08-02T00:09:09;10.17;;;7.17;;
4957;SDS011;2494;51.872;9.688;2022-08-02T00:11:36;7.60;;;6.70;;
4957;SDS011;2494;51.872;9.688;2022-08-02T00:14:02;7.80;;;6.93;;
4957;SDS011;2494;51.872;9.688;2022-08-02T00:16:28;7.93;;;7.13;;
4957;SDS011;2494;51.872;9.688;2022-08-02T00:18:55;12.77;;;7.33;;
4957;SDS011;2494;51.872;9.688;2022-08-02T00:21:21;7.33;;;5.80;;
4957;SDS011;2494;51.872;9.688;2022-08-02T00:23:49;12.37;;;7.60;;
4957;SDS011;2494;51.872;9.688;2022-08-02T00:26:15;7.13;;;5.80;;
4957;SDS011;2494;51.872;9.688;2022-08-02T00:28:42;10.10;;;6.23;;
4957;SDS011;2494;51.872;9.688;2022-08-02T00:31:08;8.40;;;6.33;;
4957;SDS011;2494;51.872;9.688;2022-08-02T00:33:34;6.47;;;5.87;;
4957;SDS011;2494;51.872;9.688;2022-08-02T00:36:01;6.63;;;6.03;;
4957;SDS011;2494;51.872;9.688;2022-08-02T00:38:27;5.60;;;5.23;;
4957;SDS011;2494;51.872;9.688;2022-08-02T00:40:55;6.20;;;5.70;;
4957;SDS011;2494;51.872;9.688;2022-08-02T00:43:21;6.33;;;5.80;;
4957;SDS011;2494;51.872;9.688;2022-08-02T00:45:48;11.20;;;6.00;;
4957;SDS011;2494;51.872;9.688;2022-08-02T00:48:14;8.57;;;5.80;;
4957;SDS011;2494;51.872;9.688;2022-08-02T00:50:40;8.30;;;5.27;;
4957;SDS011;2494;51.872;9.688;2022-08-02T00:53:07;8.03;;;6.10;;
4957;SDS011;2494;51.872;9.688;2022-08-02T00:55:33;12.47;;;6.33;;
4957;SDS011;2494;51.872;9.688;2022-08-02T00:58:01;7.50;;;5.33;;
4957;SDS011;2494;51.872;9.688;2022-08-02T01:00:28;5.03;;;4.40;;
4957;SDS011;2494;51.872;9.688;2022-08-02T01:02:54;8.80;;;4.53;;
4957;SDS011;2494;51.872;9.688;2022-08-02T01:05:20;5.87;;;4.67;;
4957;SDS011;2494;51.872;9.688;2022-08-02T01:07:47;5.27;;;4.77;;
4957;SDS011;2494;51.872;9.688;2022-08-02T01:10:13;4.43;;;4.10;;
4957;SDS011;2494;51.872;9.688;2022-08-02T01:12:39;11.60;;;5.60;;
4957;SDS011;2494;51.872;9.688;2022-08-02T01:15:08;7.40;;;4.60;;
4957;SDS011;2494;51.872;9.688;2022-08-02T01:17:35;5.80;;;4.53;;
4957;SDS011;2494;51.872;9.688;2022-08-02T01:20:05;12.17;;;5.87;;
4957;SDS011;2494;51.872;9.688;2022-08-02T01:22:52;7.00;;;6.30;;
4957;SDS011;2494;51.872;9.688;2022-08-02T01:25:28;8.90;;;5.10;;
4957;SDS011;2494;51.872;9.688;2022-08-02T01:28:07;5.30;;;4.90;;
4957;SDS011;2494;51.872;9.688;2022-08-02T01:30:34;9.60;;;5.10;;
4957;SDS011;2494;51.872;9.688;2022-08-02T01:33:01;11.83;;;5.23;;
4957;SDS011;2494;51.872;9.688;2022-08-02T01:35:29;9.03;;;5.50;;
4957;SDS011;2494;51.872;9.688;2022-08-02T01:38:01;9.87;;;5.70;;
4957;SDS011;2494;51.872;9.688;2022-08-02T01:40:30;13.13;;;6.27;;
4957;SDS011;2494;51.872;9.688;2022-08-02T01:42:57;6.40;;;5.80;;
4957;SDS011;2494;51.872;9.688;2022-08-02T01:45:28;6.43;;;5.10;;
4957;SDS011;2494;51.872;9.688;2022-08-02T01:47:55;9.30;;;5.97;;
4957;SDS011;2494;51.872;9.688;2022-08-02T01:50:23;9.40;;;5.43;;
4957;SDS011;2494;51.872;9.688;2022-08-02T01:52:50;9.43;;;5.53;;
4957;SDS011;2494;51.872;9.688;2022-08-02T01:55:20;4.30;;;3.93;;
4957;SDS011;2494;51.872;9.688;2022-08-02T01:57:48;6.10;;;3.80;;
4957;SDS011;2494;51.872;9.688;2022-08-02T02:00:15;5.07;;;4.60;;
4957;SDS011;2494;51.872;9.688;2022-08-02T02:02:43;8.00;;;3.77;;
4957;SDS011;2494;51.872;9.688;2022-08-02T02:05:12;6.93;;;4.50;;
4957;SDS011;2494;51.872;9.688;2022-08-02T02:07:39;8.00;;;4.40;;
4957;SDS011;2494;51.872;9.688;2022-08-02T02:10:06;18.90;;;5.47;;
4957;SDS011;2494;51.872;9.688;2022-08-02T02:12:33;8.20;;;4.67;;
4957;SDS011;2494;51.872;9.688;2022-08-02T02:15:02;10.70;;;5.07;;
4957;SDS011;2494;51.872;9.688;2022-08-02T02:17:28;8.57;;;4.67;;
4957;SDS011;2494;51.872;9.688;2022-08-02T02:19:57;5.60;;;5.10;;
4957;SDS011;2494;51.872;9.688;2022-08-02T02:22:25;11.20;;;4.40;;
4957;SDS011;2494;51.872;9.688;2022-08-02T02:24:51;8.07;;;5.17;;
4957;SDS011;2494;51.872;9.688;2022-08-02T02:27:18;12.13;;;5.87;;
4957;SDS011;2494;51.872;9.688;2022-08-02T02:29:46;7.43;;;5.53;;
4957;SDS011;2494;51.872;9.688;2022-08-02T02:32:15;7.87;;;5.00;;
4957;SDS011;2494;51.872;9.688;2022-08-02T02:34:42;6.43;;;5.83;;
4957;SDS011;2494;51.872;9.688;2022-08-02T02:37:12;11.00;;;5.43;;
4957;SDS011;2494;51.872;9.688;2022-08-02T02:39:39;8.90;;;5.47;;
4957;SDS011;2494;51.872;9.688;2022-08-02T02:42:07;13.97;;;7.37;;
4957;SDS011;2494;51.872;9.688;2022-08-02T02:44:35;10.10;;;6.97;;
4957;SDS011;2494;51.872;9.688;2022-08-02T02:47:03;8.40;;;6.60;;
4957;SDS011;2494;51.872;9.688;2022-08-02T02:49:31;7.83;;;7.03;;
4957;SDS011;2494;51.872;9.688;2022-08-02T02:51:57;7.43;;;6.93;;
4957;SDS011;2494;51.872;9.688;2022-08-02T02:54:25;6.27;;;5.70;;
4957;SDS011;2494;51.872;9.688;2022-08-02T02:56:52;11.20;;;6.80;;
4957;SDS011;2494;51.872;9.688;2022-08-02T02:59:18;10.13;;;7.80;;
4957;SDS011;2494;51.872;9.688;2022-08-02T03:01:45;6.90;;;6.13;;
4957;SDS011;2494;51.872;9.688;2022-08-02T03:04:11;7.00;;;6.40;;
4957;SDS011;2494;51.872;9.688;2022-08-02T03:06:39;8.33;;;6.40;;
4957;SDS011;2494;51.872;9.688;2022-08-02T03:09:06;7.50;;;6.80;;
4957;SDS011;2494;51.872;9.688;2022-08-02T03:11:34;7.90;;;7.03;;
4957;SDS011;2494;51.872;9.688;2022-08-02T03:14:01;9.90;;;7.03;;
4957;SDS011;2494;51.872;9.688;2022-08-02T03:16:27;12.93;;;7.37;;
4957;SDS011;2494;51.872;9.688;2022-08-02T03:18:54;11.30;;;6.57;;
4957;SDS011;2494;51.872;9.688;2022-08-02T03:21:21;11.43;;;6.90;;
4957;SDS011;2494;51.872;9.688;2022-08-02T03:23:47;12.70;;;6.90;;
4957;SDS011;2494;51.872;9.688;2022-08-02T03:26:14;9.53;;;6.77;;
4957;SDS011;2494;51.872;9.688;2022-08-02T03:28:42;8.43;;;7.13;;
4957;SDS011;2494;51.872;9.688;2022-08-02T03:31:08;11.10;;;6.30;;
4957;SDS011;2494;51.872;9.688;2022-08-02T03:33:35;6.73;;;5.97;;
4957;SDS011;2494;51.872;9.688;2022-08-02T03:36:03;10.80;;;6.40;;
4957;SDS011;2494;51.872;9.688;2022-08-02T03:38:30;9.17;;;6.80;;
4957;SDS011;2494;51.872;9.688;2022-08-02T03:40:57;7.23;;;6.53;;
4957;SDS011;2494;51.872;9.688;2022-08-02T03:43:25;6.83;;;6.13;;
4957;SDS011;2494;51.872;9.688;2022-08-02T03:45:53;11.13;;;6.70;;
4957;SDS011;2494;51.872;9.688;2022-08-02T03:48:20;11.43;;;6.90;;
4957;SDS011;2494;51.872;9.688;2022-08-02T03:50:47;13.20;;;7.47;;
4957;SDS011;2494;51.872;9.688;2022-08-02T03:53:14;13.27;;;7.57;;
4957;SDS011;2494;51.872;9.688;2022-08-02T03:55:41;8.30;;;6.33;;
4957;SDS011;2494;51.872;9.688;2022-08-02T03:58:07;10.50;;;6.80;;
4957;SDS011;2494;51.872;9.688;2022-08-02T04:00:33;11.50;;;6.90;;
4957;SDS011;2494;51.872;9.688;2022-08-02T04:03:01;8.80;;;6.57;;
4957;SDS011;2494;51.872;9.688;2022-08-02T04:05:27;13.10;;;6.80;;
4957;SDS011;2494;51.872;9.688;2022-08-02T04:07:54;12.30;;;6.70;;
4957;SDS011;2494;51.872;9.688;2022-08-02T04:10:21;11.47;;;7.20;;
4957;SDS011;2494;51.872;9.688;2022-08-02T04:12:47;9.83;;;6.70;;
4957;SDS011;2494;51.872;9.688;2022-08-02T04:15:14;6.50;;;5.90;;
4957;SDS011;2494;51.872;9.688;2022-08-02T04:17:42;12.10;;;6.50;;
4957;SDS011;2494;51.872;9.688;2022-08-02T04:20:11;6.47;;;5.87;;
4957;SDS011;2494;51.872;9.688;2022-08-02T04:22:41;7.57;;;5.00;;
4957;SDS011;2494;51.872;9.688;2022-08-02T04:25:10;5.13;;;4.70;;
4957;SDS011;2494;51.872;9.688;2022-08-02T04:27:36;6.47;;;4.50;;
4957;SDS011;2494;51.872;9.688;2022-08-02T04:30:04;9.70;;;5.93;;
4957;SDS011;2494;51.872;9.688;2022-08-02T04:32:30;13.27;;;5.50;;
4957;SDS011;2494;51.872;9.688;2022-08-02T04:34:57;14.00;;;6.83;;
4957;SDS011;2494;51.872;9.688;2022-08-02T04:37:25;7.93;;;7.30;;
4957;SDS011;2494;51.872;9.688;2022-08-02T04:39:51;8.63;;;6.13;;
4957;SDS011;2494;51.872;9.688;2022-08-02T04:42:19;6.07;;;5.50;;
4957;SDS011;2494;51.872;9.688;2022-08-02T04:44:45;8.37;;;5.53;;
4957;SDS011;2494;51.872;9.688;2022-08-02T04:47:12;9.03;;;6.20;;
4957;SDS011;2494;51.872;9.688;2022-08-02T04:49:38;11.57;;;5.97;;
4957;SDS011;2494;51.872;9.688;2022-08-02T04:52:04;6.33;;;5.63;;
4957;SDS011;2494;51.872;9.688;2022-08-02T04:54:32;4.70;;;4.23;;
4957;SDS011;2494;51.872;9.688;2022-08-02T04:56:58;3.17;;;2.90;;
4957;SDS011;2494;51.872;9.688;2022-08-02T04:59:25;5.33;;;3.50;;
4957;SDS011;2494;51.872;9.688;2022-08-02T05:01:51;6.67;;;2.83;;
4957;SDS011;2494;51.872;9.688;2022-08-02T05:04:18;5.17;;;2.40;;
4957;SDS011;2494;51.872;9.688;2022-08-02T05:06:44;4.07;;;3.00;;
4957;SDS011;2494;51.872;9.688;2022-08-02T05:09:11;3.20;;;2.90;;
4957;SDS011;2494;51.872;9.688;2022-08-02T05:11:38;3.00;;;2.70;;
4957;SDS011;2494;51.872;9.688;2022-08-02T05:14:05;3.83;;;3.20;;
4957;SDS011;2494;51.872;9.688;2022-08-02T05:16:31;6.97;;;4.83;;
4957;SDS011;2494;51.872;9.688;2022-08-02T05:18:57;5.73;;;3.50;;
4957;SDS011;2494;51.872;9.688;2022-08-02T05:21:24;4.97;;;4.37;;
4957;SDS011;2494;51.872;9.688;2022-08-02T05:23:50;6.33;;;3.37;;
4957;SDS011;2494;51.872;9.688;2022-08-02T05:26:16;4.03;;;3.20;;
4957;SDS011;2494;51.872;9.688;2022-08-02T05:28:44;4.60;;;3.03;;
4957;SDS011;2494;51.872;9.688;2022-08-02T05:31:10;4.83;;;3.07;;
4957;SDS011;2494;51.872;9.688;2022-08-02T05:33:37;8.30;;;2.73;;
4957;SDS011;2494;51.872;9.688;2022-08-02T05:36:03;4.37;;;3.33;;
4957;SDS011;2494;51.872;9.688;2022-08-02T05:38:29;8.60;;;3.50;;
4957;SDS011;2494;51.872;9.688;2022-08-02T05:40:57;4.23;;;3.00;;
4957;SDS011;2494;51.872;9.688;2022-08-02T05:43:24;4.90;;;3.60;;
4957;SDS011;2494;51.872;9.688;2022-08-02T05:45:51;7.87;;;3.30;;
4957;SDS011;2494;51.872;9.688;2022-08-02T05:48:21;9.33;;;3.73;;
4957;SDS011;2494;51.872;9.688;2022-08-02T05:50:48;3.30;;;3.10;;
4957;SDS011;2494;51.872;9.688;2022-08-02T05:53:17;5.63;;;2.90;;
4957;SDS011;2494;51.872;9.688;2022-08-02T05:55:46;6.83;;;3.47;;
4957;SDS011;2494;51.872;9.688;2022-08-02T05:58:15;3.73;;;3.17;;
4957;SDS011;2494;51.872;9.688;2022-08-02T06:00:43;4.80;;;3.00;;
4957;SDS011;2494;51.872;9.688;2022-08-02T06:03:17;4.23;;;3.23;;
4957;SDS011;2494;51.872;9.688;2022-08-02T06:05:52;3.23;;;2.93;;
4957;SDS011;2494;51.872;9.688;2022-08-02T06:08:19;3.60;;;2.97;;
4957;SDS011;2494;51.872;9.688;2022-08-02T06:10:46;5.57;;;3.43;;
4957;SDS011;2494;51.872;9.688;2022-08-02T06:13:14;6.20;;;3.43;;
4957;SDS011;2494;51.872;9.688;2022-08-02T06:15:41;3.63;;;2.70;;
4957;SDS011;2494;51.872;9.688;2022-08-02T06:18:08;3.77;;;3.43;;
4957;SDS011;2494;51.872;9.688;2022-08-02T06:20:36;5.93;;;3.47;;
4957;SDS011;2494;51.872;9.688;2022-08-02T06:23:02;6.30;;;3.43;;
4957;SDS011;2494;51.872;9.688;2022-08-02T06:25:29;3.57;;;3.23;;
4957;SDS011;2494;51.872;9.688;2022-08-02T06:27:56;4.43;;;3.30;;
4957;SDS011;2494;51.872;9.688;2022-08-02T06:30:22;4.90;;;2.77;;
4957;SDS011;2494;51.872;9.688;2022-08-02T06:32:49;5.27;;;2.83;;
4957;SDS011;2494;51.872;9.688;2022-08-02T06:35:16;3.40;;;3.10;;
4957;SDS011;2494;51.872;9.688;2022-08-02T06:37:45;2.90;;;2.70;;
4957;SDS011;2494;51.872;9.688;2022-08-02T06:40:13;2.90;;;2.60;;
4957;SDS011;2494;51.872;9.688;2022-08-02T06:42:48;3.00;;;2.70;;
4957;SDS011;2494;51.872;9.688;2022-08-02T06:45:15;3.57;;;2.67;;
4957;SDS011;2494;51.872;9.688;2022-08-02T06:47:42;2.87;;;2.67;;
4957;SDS011;2494;51.872;9.688;2022-08-02T06:50:08;8.13;;;3.10;;
4957;SDS011;2494;51.872;9.688;2022-08-02T06:52:35;3.50;;;2.93;;
4957;SDS011;2494;51.872;9.688;2022-08-02T06:55:03;3.73;;;2.60;;
4957;SDS011;2494;51.872;9.688;2022-08-02T06:57:30;7.50;;;3.30;;
4957;SDS011;2494;51.872;9.688;2022-08-02T06:59:57;4.00;;;2.97;;
4957;SDS011;2494;51.872;9.688;2022-08-02T07:02:25;2.73;;;2.17;;
4957;SDS011;2494;51.872;9.688;2022-08-02T07:04:52;5.50;;;3.13;;
4957;SDS011;2494;51.872;9.688;2022-08-02T07:07:18;4.63;;;2.60;;
4957;SDS011;2494;51.872;9.688;2022-08-02T07:09:44;4.10;;;2.43;;
4957;SDS011;2494;51.872;9.688;2022-08-02T07:12:12;3.37;;;3.07;;
4957;SDS011;2494;51.872;9.688;2022-08-02T07:14:38;3.00;;;2.70;;
4957;SDS011;2494;51.872;9.688;2022-08-02T07:17:05;2.63;;;2.40;;
4957;SDS011;2494;51.872;9.688;2022-08-02T07:19:31;4.53;;;2.50;;
4957;SDS011;2494;51.872;9.688;2022-08-02T07:21:57;4.00;;;2.00;;
4957;SDS011;2494;51.872;9.688;2022-08-02T07:24:24;2.70;;;2.37;;
4957;SDS011;2494;51.872;9.688;2022-08-02T07:26:50;4.43;;;2.30;;
4957;SDS011;2494;51.872;9.688;2022-08-02T07:29:18;3.40;;;2.63;;
4957;SDS011;2494;51.872;9.688;2022-08-02T07:31:44;4.23;;;2.57;;
4957;SDS011;2494;51.872;9.688;2022-08-02T07:34:10;4.50;;;2.73;;
4957;SDS011;2494;51.872;9.688;2022-08-02T07:36:36;2.97;;;2.67;;
4957;SDS011;2494;51.872;9.688;2022-08-02T07:39:03;6.30;;;3.77;;
4957;SDS011;2494;51.872;9.688;2022-08-02T07:41:29;4.30;;;2.90;;
4957;SDS011;2494;51.872;9.688;2022-08-02T07:43:56;3.30;;;3.00;;
4957;SDS011;2494;51.872;9.688;2022-08-02T07:46:23;7.00;;;3.20;;
4957;SDS011;2494;51.872;9.688;2022-08-02T07:48:50;7.70;;;3.30;;
4957;SDS011;2494;51.872;9.688;2022-08-02T07:51:18;3.20;;;2.73;;
4957;SDS011;2494;51.872;9.688;2022-08-02T07:53:45;3.87;;;3.50;;
4957;SDS011;2494;51.872;9.688;2022-08-02T07:56:11;3.63;;;3.33;;
4957;SDS011;2494;51.872;9.688;2022-08-02T07:58:38;3.07;;;2.80;;
4957;SDS011;2494;51.872;9.688;2022-08-02T08:01:05;3.57;;;3.23;;
4957;SDS011;2494;51.872;9.688;2022-08-02T08:03:33;3.80;;;3.50;;
4957;SDS011;2494;51.872;9.688;2022-08-02T08:06:00;4.60;;;3.57;;
4957;SDS011;2494;51.872;9.688;2022-08-02T08:08:26;4.10;;;3.80;;
4957;SDS011;2494;51.872;9.688;2022-08-02T08:10:52;6.03;;;4.23;;
4957;SDS011;2494;51.872;9.688;2022-08-02T08:13:19;4.60;;;3.00;;
4957;SDS011;2494;51.872;9.688;2022-08-02T08:15:45;4.10;;;3.80;;
4957;SDS011;2494;51.872;9.688;2022-08-02T08:18:11;3.63;;;3.33;;
4957;SDS011;2494;51.872;9.688;2022-08-02T08:20:39;3.77;;;3.47;;
4957;SDS011;2494;51.872;9.688;2022-08-02T08:23:05;4.93;;;3.33;;
4957;SDS011;2494;51.872;9.688;2022-08-02T08:25:32;4.10;;;3.70;;
4957;SDS011;2494;51.872;9.688;2022-08-02T08:27:58;7.53;;;3.70;;
4957;SDS011;2494;51.872;9.688;2022-08-02T08:30:24;5.73;;;3.37;;
4957;SDS011;2494;51.872;9.688;2022-08-02T08:32:51;4.30;;;3.90;;
4957;SDS011;2494;51.872;9.688;2022-08-02T08:35:17;3.00;;;2.80;;
4957;SDS011;2494;51.872;9.688;2022-08-02T08:37:45;3.60;;;3.30;;
4957;SDS011;2494;51.872;9.688;2022-08-02T08:40:11;5.37;;;3.57;;
4957;SDS011;2494;51.872;9.688;2022-08-02T08:42:39;3.83;;;3.53;;
4957;SDS011;2494;51.872;9.688;2022-08-02T08:45:06;3.10;;;2.90;;
4957;SDS011;2494;51.872;9.688;2022-08-02T08:47:33;3.47;;;3.27;;
4957;SDS011;2494;51.872;9.688;2022-08-02T08:50:00;4.57;;;3.63;;
4957;SDS011;2494;51.872;9.688;2022-08-02T08:52:28;2.90;;;2.70;;
4957;SDS011;2494;51.872;9.688;2022-08-02T08:54:56;3.57;;;3.27;;
4957;SDS011;2494;51.872;9.688;2022-08-02T08:57:22;2.90;;;2.70;;
4957;SDS011;2494;51.872;9.688;2022-08-02T08:59:49;2.70;;;2.43;;
4957;SDS011;2494;51.872;9.688;2022-08-02T09:02:15;3.30;;;3.10;;
4957;SDS011;2494;51.872;9.688;2022-08-02T09:04:42;2.80;;;2.70;;
4957;SDS011;2494;51.872;9.688;2022-08-02T09:07:08;3.67;;;3.37;;
4957;SDS011;2494;51.872;9.688;2022-08-02T09:09:34;6.67;;;3.60;;
4957;SDS011;2494;51.872;9.688;2022-08-02T09:12:13;3.20;;;3.00;;
4957;SDS011;2494;51.872;9.688;2022-08-02T09:14:39;4.10;;;2.73;;
4957;SDS011;2494;51.872;9.688;2022-08-02T09:17:06;3.80;;;3.23;;
4957;SDS011;2494;51.872;9.688;2022-08-02T09:19:32;3.60;;;3.30;;
4957;SDS011;2494;51.872;9.688;2022-08-02T09:22:02;3.90;;;3.57;;
4957;SDS011;2494;51.872;9.688;2022-08-02T09:24:28;5.53;;;3.97;;
4957;SDS011;2494;51.872;9.688;2022-08-02T09:26:55;3.87;;;3.57;;
4957;SDS011;2494;51.872;9.688;2022-08-02T09:29:23;3.80;;;3.60;;
4957;SDS011;2494;51.872;9.688;2022-08-02T09:31:49;4.60;;;4.20;;
4957;SDS011;2494;51.872;9.688;2022-08-02T09:34:16;3.47;;;3.27;;
4957;SDS011;2494;51.872;9.688;2022-08-02T09:36:43;2.67;;;2.40;;
4957;SDS011;2494;51.872;9.688;2022-08-02T09:39:10;1.97;;;1.70;;
4957;SDS011;2494;51.872;9.688;2022-08-02T09:41:37;3.97;;;1.63;;
4957;SDS011;2494;51.872;9.688;2022-08-02T09:44:05;5.50;;;1.90;;
4957;SDS011;2494;51.872;9.688;2022-08-02T09:46:34;2.23;;;1.60;;
4957;SDS011;2494;51.872;9.688;2022-08-02T09:49:03;4.00;;;1.60;;
4957;SDS011;2494;51.872;9.688;2022-08-02T09:51:30;1.53;;;1.43;;
4957;SDS011;2494;51.872;9.688;2022-08-02T09:53:57;1.40;;;1.30;;
4957;SDS011;2494;51.872;9.688;2022-08-02T09:56:24;3.13;;;1.30;;
4957;SDS011;2494;51.872;9.688;2022-08-02T09:58:51;2.60;;;1.30;;
4957;SDS011;2494;51.872;9.688;2022-08-02T10:01:19;1.50;;;1.40;;
4957;SDS011;2494;51.872;9.688;2022-08-02T10:03:54;2.40;;;1.30;;
4957;SDS011;2494;51.872;9.688;2022-08-02T10:06:21;3.17;;;1.50;;
4957;SDS011;2494;51.872;9.688;2022-08-02T10:08:48;1.83;;;1.20;;
4957;SDS011;2494;51.872;9.688;2022-08-02T10:11:14;1.40;;;1.30;;
4957;SDS011;2494;51.872;9.688;2022-08-02T10:13:40;1.50;;;1.40;;
4957;SDS011;2494;51.872;9.688;2022-08-02T10:16:07;1.40;;;1.30;;
4957;SDS011;2494;51.872;9.688;2022-08-02T10:18:35;1.60;;;1.50;;
4957;SDS011;2494;51.872;9.688;2022-08-02T10:21:02;1.40;;;1.30;;
4957;SDS011;2494;51.872;9.688;2022-08-02T10:23:32;1.63;;;1.53;;
4957;SDS011;2494;51.872;9.688;2022-08-02T10:25:59;1.50;;;1.40;;
4957;SDS011;2494;51.872;9.688;2022-08-02T10:28:26;1.67;;;1.40;;
4957;SDS011;2494;51.872;9.688;2022-08-02T10:30:54;1.33;;;1.23;;
4957;SDS011;2494;51.872;9.688;2022-08-02T10:33:21;1.53;;;1.43;;
4957;SDS011;2494;51.872;9.688;2022-08-02T10:35:50;2.13;;;1.20;;
4957;SDS011;2494;51.872;9.688;2022-08-02T10:38:19;1.20;;;1.10;;
4957;SDS011;2494;51.872;9.688;2022-08-02T10:40:47;1.20;;;1.10;;
4957;SDS011;2494;51.872;9.688;2022-08-02T10:45:58;1.30;;;1.17;;
4957;SDS011;2494;51.872;9.688;2022-08-02T10:48:59;1.20;;;1.10;;
4957;SDS011;2494;51.872;9.688;2022-08-02T10:51:34;1.37;;;1.23;;
4957;SDS011;2494;51.872;9.688;2022-08-02T10:54:19;1.50;;;1.40;;
4957;SDS011;2494;51.872;9.688;2022-08-02T10:56:46;1.73;;;1.27;;
4957;SDS011;2494;51.872;9.688;2022-08-02T10:59:23;1.83;;;1.17;;
4957;SDS011;2494;51.872;9.688;2022-08-02T11:01:50;1.57;;;1.30;;
4957;SDS011;2494;51.872;9.688;2022-08-02T11:04:17;1.30;;;1.20;;
4957;SDS011;2494;51.872;9.688;2022-08-02T11:09:26;1.43;;;1.20;;
4957;SDS011;2494;51.872;9.688;2022-08-02T11:12:00;2.00;;;1.40;;
4957;SDS011;2494;51.872;9.688;2022-08-02T11:14:26;1.20;;;1.10;;
4957;SDS011;2494;51.872;9.688;2022-08-02T11:17:05;1.37;;;1.27;;
4957;SDS011;2494;51.872;9.688;2022-08-02T11:19:33;3.13;;;1.27;;
4957;SDS011;2494;51.872;9.688;2022-08-02T11:22:00;1.43;;;1.33;;
4957;SDS011;2494;51.872;9.688;2022-08-02T11:24:29;10.50;;;2.43;;
4957;SDS011;2494;51.872;9.688;2022-08-02T11:26:57;1.53;;;1.43;;
4957;SDS011;2494;51.872;9.688;2022-08-02T11:29:36;1.40;;;1.23;;
4957;SDS011;2494;51.872;9.688;2022-08-02T11:32:03;2.70;;;1.67;;
4957;SDS011;2494;51.872;9.688;2022-08-02T11:34:30;3.70;;;1.50;;
4957;SDS011;2494;51.872;9.688;2022-08-02T11:36:57;1.50;;;1.40;;
4957;SDS011;2494;51.872;9.688;2022-08-02T11:39:23;1.47;;;1.37;;
4957;SDS011;2494;51.872;9.688;2022-08-02T11:41:52;1.43;;;1.33;;
4957;SDS011;2494;51.872;9.688;2022-08-02T11:44:18;1.63;;;1.53;;
4957;SDS011;2494;51.872;9.688;2022-08-02T11:46:52;2.03;;;1.70;;
4957;SDS011;2494;51.872;9.688;2022-08-02T11:49:18;1.60;;;1.50;;
4957;SDS011;2494;51.872;9.688;2022-08-02T11:51:54;2.00;;;1.90;;
4957;SDS011;2494;51.872;9.688;2022-08-02T11:54:22;1.80;;;1.70;;
4957;SDS011;2494;51.872;9.688;2022-08-02T11:56:48;1.80;;;1.70;;
4957;SDS011;2494;51.872;9.688;2022-08-02T11:59:16;1.83;;;1.73;;
4957;SDS011;2494;51.872;9.688;2022-08-02T12:01:43;2.00;;;1.80;;
4957;SDS011;2494;51.872;9.688;2022-08-02T12:04:09;4.60;;;1.83;;
4957;SDS011;2494;51.872;9.688;2022-08-02T12:06:35;1.70;;;1.50;;
4957;SDS011;2494;51.872;9.688;2022-08-02T12:09:02;3.63;;;1.77;;
4957;SDS011;2494;51.872;9.688;2022-08-02T12:11:29;1.80;;;1.70;;
4957;SDS011;2494;51.872;9.688;2022-08-02T12:13:55;2.00;;;1.90;;
4957;SDS011;2494;51.872;9.688;2022-08-02T12:16:23;2.67;;;1.80;;
4957;SDS011;2494;51.872;9.688;2022-08-02T12:19:07;1.87;;;1.70;;
4957;SDS011;2494;51.872;9.688;2022-08-02T12:21:48;1.60;;;1.50;;
4957;SDS011;2494;51.872;9.688;2022-08-02T12:24:25;1.93;;;1.60;;
4957;SDS011;2494;51.872;9.688;2022-08-02T12:26:52;1.87;;;1.70;;
4957;SDS011;2494;51.872;9.688;2022-08-02T12:29:27;1.40;;;1.30;;
4957;SDS011;2494;51.872;9.688;2022-08-02T12:31:55;2.70;;;1.60;;
4957;SDS011;2494;51.872;9.688;2022-08-02T12:34:21;1.93;;;1.60;;
4957;SDS011;2494;51.872;9.688;2022-08-02T12:36:56;1.70;;;1.60;;
4957;SDS011;2494;51.872;9.688;2022-08-02T12:39:32;1.70;;;1.60;;
4957;SDS011;2494;51.872;9.688;2022-08-02T12:41:58;1.80;;;1.70;;
4957;SDS011;2494;51.872;9.688;2022-08-02T12:44:25;2.50;;;2.00;;
4957;SDS011;2494;51.872;9.688;2022-08-02T12:46:58;3.00;;;1.50;;
4957;SDS011;2494;51.872;9.688;2022-08-02T12:49:25;2.17;;;1.97;;
4957;SDS011;2494;51.872;9.688;2022-08-02T12:51:51;1.50;;;1.40;;
4957;SDS011;2494;51.872;9.688;2022-08-02T12:54:18;1.90;;;1.80;;
4957;SDS011;2494;51.872;9.688;2022-08-02T12:56:46;1.60;;;1.50;;
4957;SDS011;2494;51.872;9.688;2022-08-02T12:59:12;1.70;;;1.60;;
4957;SDS011;2494;51.872;9.688;2022-08-02T13:01:39;1.80;;;1.60;;
4957;SDS011;2494;51.872;9.688;2022-08-02T13:04:07;1.73;;;1.63;;
4957;SDS011;2494;51.872;9.688;2022-08-02T13:06:33;1.50;;;1.40;;
4957;SDS011;2494;51.872;9.688;2022-08-02T13:09:00;1.40;;;1.30;;
4957;SDS011;2494;51.872;9.688;2022-08-02T13:11:26;1.60;;;1.50;;
4957;SDS011;2494;51.872;9.688;2022-08-02T13:13:53;1.70;;;1.60;;
4957;SDS011;2494;51.872;9.688;2022-08-02T13:16:19;1.90;;;1.70;;
4957;SDS011;2494;51.872;9.688;2022-08-02T13:18:45;1.53;;;1.40;;
4957;SDS011;2494;51.872;9.688;2022-08-02T13:21:13;1.67;;;1.57;;
4957;SDS011;2494;51.872;9.688;2022-08-02T13:23:39;2.30;;;1.70;;
4957;SDS011;2494;51.872;9.688;2022-08-02T13:26:06;2.00;;;1.53;;
4957;SDS011;2494;51.872;9.688;2022-08-02T13:28:32;1.60;;;1.50;;
4957;SDS011;2494;51.872;9.688;2022-08-02T13:30:59;1.73;;;1.63;;
4957;SDS011;2494;51.872;9.688;2022-08-02T13:33:26;1.50;;;1.40;;
4957;SDS011;2494;51.872;9.688;2022-08-02T13:35:53;1.60;;;1.50;;
4957;SDS011;2494;51.872;9.688;2022-08-02T13:38:20;1.90;;;1.40;;
4957;SDS011;2494;51.872;9.688;2022-08-02T13:40:46;1.80;;;1.70;;
4957;SDS011;2494;51.872;9.688;2022-08-02T13:43:30;2.80;;;1.90;;
4957;SDS011;2494;51.872;9.688;2022-08-02T13:45:57;2.43;;;2.33;;
4957;SDS011;2494;51.872;9.688;2022-08-02T13:48:23;1.97;;;1.87;;
4957;SDS011;2494;51.872;9.688;2022-08-02T13:50:49;3.20;;;1.70;;
4957;SDS011;2494;51.872;9.688;2022-08-02T13:53:15;6.90;;;1.90;;
4957;SDS011;2494;51.872;9.688;2022-08-02T13:55:43;1.87;;;1.77;;
4957;SDS011;2494;51.872;9.688;2022-08-02T13:58:09;1.67;;;1.57;;
4957;SDS011;2494;51.872;9.688;2022-08-02T14:00:36;2.00;;;1.90;;
4957;SDS011;2494;51.872;9.688;2022-08-02T14:03:03;4.80;;;1.60;;
4957;SDS011;2494;51.872;9.688;2022-08-02T14:05:29;3.73;;;1.77;;
4957;SDS011;2494;51.872;9.688;2022-08-02T14:07:56;1.67;;;1.53;;
4957;SDS011;2494;51.872;9.688;2022-08-02T14:10:22;3.43;;;2.00;;
4957;SDS011;2494;51.872;9.688;2022-08-02T14:12:51;7.83;;;2.20;;
4957;SDS011;2494;51.872;9.688;2022-08-02T14:15:18;1.93;;;1.77;;
4957;SDS011;2494;51.872;9.688;2022-08-02T14:17:44;2.70;;;1.80;;
4957;SDS011;2494;51.872;9.688;2022-08-02T14:20:11;1.73;;;1.63;;
4957;SDS011;2494;51.872;9.688;2022-08-02T14:22:37;1.73;;;1.63;;
4957;SDS011;2494;51.872;9.688;2022-08-02T14:25:04;2.30;;;2.10;;
4957;SDS011;2494;51.872;9.688;2022-08-02T14:27:31;3.13;;;2.07;;
4957;SDS011;2494;51.872;9.688;2022-08-02T14:29:58;2.60;;;2.40;;
4957;SDS011;2494;51.872;9.688;2022-08-02T14:32:25;1.67;;;1.57;;
4957;SDS011;2494;51.872;9.688;2022-08-02T14:34:51;2.43;;;1.90;;
4957;SDS011;2494;51.872;9.688;2022-08-02T14:37:18;1.50;;;1.40;;
4957;SDS011;2494;51.872;9.688;2022-08-02T14:39:44;2.83;;;1.53;;
4957;SDS011;2494;51.872;9.688;2022-08-02T14:42:10;1.80;;;1.70;;
4957;SDS011;2494;51.872;9.688;2022-08-02T14:44:37;2.90;;;1.63;;
4957;SDS011;2494;51.872;9.688;2022-08-02T14:47:05;2.30;;;1.83;;
4957;SDS011;2494;51.872;9.688;2022-08-02T14:49:31;2.30;;;1.67;;
4957;SDS011;2494;51.872;9.688;2022-08-02T14:51:57;2.00;;;1.80;;
4957;SDS011;2494;51.872;9.688;2022-08-02T14:54:24;2.00;;;1.47;;
4957;SDS011;2494;51.872;9.688;2022-08-02T14:56:53;1.83;;;1.73;;
4957;SDS011;2494;51.872;9.688;2022-08-02T14:59:19;3.00;;;1.70;;
4957;SDS011;2494;51.872;9.688;2022-08-02T15:01:45;1.90;;;1.77;;
4957;SDS011;2494;51.872;9.688;2022-08-02T15:04:13;1.90;;;1.80;;
4957;SDS011;2494;51.872;9.688;2022-08-02T15:06:39;2.53;;;1.60;;
4957;SDS011;2494;51.872;9.688;2022-08-02T15:09:06;1.70;;;1.60;;
4957;SDS011;2494;51.872;9.688;2022-08-02T15:11:32;1.70;;;1.60;;
4957;SDS011;2494;51.872;9.688;2022-08-02T15:13:59;1.73;;;1.63;;
4957;SDS011;2494;51.872;9.688;2022-08-02T15:16:25;1.97;;;1.87;;
4957;SDS011;2494;51.872;9.688;2022-08-02T15:18:51;1.90;;;1.80;;
4957;SDS011;2494;51.872;9.688;2022-08-02T15:21:19;2.17;;;1.70;;
4957;SDS011;2494;51.872;9.688;2022-08-02T15:23:45;4.37;;;1.80;;